Time,TemperatureF,DewpointF,PressureIn,WindDirection,WindDirectionDegrees,WindSpeedMPH,WindSpeedGustMPH,Humidity,HourlyPrecipIn,Conditions,Clouds,dailyrainin,SolarRadiationWatts/m^2,SoftwareType,DateUTC
2013-01-18 00:02:00,3.0,0.0,-100.00,NW,310,1.0,2.0,86,0.00,,,0.00,0.000000,,2013-01-18 06:02:00,
2013-01-18 00:12:00,2.0,-1.0,-100.00,SSE,166,2.0,3.0,86,0.00,,,0.00,0.000000,,2013-01-18 06:12:00,
2013-01-18 00:33:00,2.0,-1.0,-100.00,SSE,166,2.0,3.0,86,0.00,,,0.00,0.000000,,2013-01-18 06:33:00,
2013-01-18 00:43:00,2.0,-1.0,-100.00,SSE,166,2.0,3.0,86,0.00,,,0.00,0.000000,,2013-01-18 06:43:00,
2013-01-18 00:53:00,2.0,-1.0,-100.00,SSE,166,2.0,3.0,86,0.00,,,0.00,0.000000,,2013-01-18 06:53:00,
2013-01-18 01:02:00,2.0,-1.0,-100.00,SSE,166,2.0,3.0,86,0.00,,,0.00,0.000000,,2013-01-18 07:02:00,
2013-01-18 01:12:00,2.0,-1.0,-100.00,SW,232,0.0,2.0,85,0.00,,,0.00,0.000000,,2013-01-18 07:12:00,
2013-01-18 01:33:00,2.0,-1.0,-100.00,SW,232,0.0,2.0,85,0.00,,,0.00,0.000000,,2013-01-18 07:33:00,
2013-01-18 01:42:00,2.0,-1.0,-100.00,SW,232,0.0,2.0,85,0.00,,,0.00,0.000000,,2013-01-18 07:42:00,
2013-01-18 01:52:00,2.0,-1.0,-100.00,SW,232,0.0,2.0,85,0.00,,,0.00,0.000000,,2013-01-18 07:52:00,
2013-01-18 02:02:00,2.0,-1.0,-100.00,SW,232,0.0,2.0,85,0.00,,,0.00,0.000000,,2013-01-18 08:02:00,
2013-01-18 02:12:00,5.0,2.0,-100.00,ENE,68,0.0,0.0,88,0.00,,,0.00,0.000000,,2013-01-18 08:12:00,
2013-01-18 02:33:00,5.0,2.0,-100.00,ENE,68,0.0,0.0,88,0.00,,,0.00,0.000000,,2013-01-18 08:33:00,
2013-01-18 02:43:00,5.0,2.0,-100.00,ENE,68,0.0,0.0,88,0.00,,,0.00,0.000000,,2013-01-18 08:43:00,
2013-01-18 02:53:00,5.0,2.0,-100.00,ENE,68,0.0,0.0,88,0.00,,,0.00,0.000000,,2013-01-18 08:53:00,
2013-01-18 03:02:00,5.0,2.0,-100.00,ENE,68,0.0,0.0,88,0.00,,,0.00,0.000000,,2013-01-18 09:02:00,
2013-01-18 03:12:00,7.0,4.0,-100.00,SE,137,1.0,4.0,89,0.00,,,0.00,0.000000,,2013-01-18 09:12:00,
2013-01-18 03:33:00,7.0,4.0,-100.00,SE,137,1.0,4.0,89,0.00,,,0.00,0.000000,,2013-01-18 09:33:00,
2013-01-18 03:43:00,7.0,4.0,-100.00,SE,137,1.0,4.0,89,0.00,,,0.00,0.000000,,2013-01-18 09:43:00,
2013-01-18 03:53:00,7.0,4.0,-100.00,SE,137,1.0,4.0,89,0.00,,,0.00,0.000000,,2013-01-18 09:53:00,
2013-01-18 04:02:00,7.0,4.0,-100.00,SE,137,1.0,4.0,89,0.00,,,0.00,0.000000,,2013-01-18 10:02:00,
2013-01-18 04:12:00,10.0,8.0,-100.00,SE,146,2.0,4.0,90,0.00,,,0.00,0.000000,,2013-01-18 10:12:00,
2013-01-18 04:33:00,10.0,8.0,-100.00,SE,146,2.0,4.0,90,0.00,,,0.00,0.000000,,2013-01-18 10:33:00,
2013-01-18 04:43:00,10.0,8.0,-100.00,SE,146,2.0,4.0,90,0.00,,,0.00,0.000000,,2013-01-18 10:43:00,
2013-01-18 04:53:00,10.0,8.0,-100.00,SE,146,2.0,4.0,90,0.00,,,0.00,0.000000,,2013-01-18 10:53:00,
2013-01-18 05:02:00,10.0,8.0,-100.00,SE,146,2.0,4.0,90,0.00,,,0.00,0.000000,,2013-01-18 11:02:00,
2013-01-18 05:12:00,11.0,9.0,-100.00,ESE,106,2.0,4.0,90,0.00,,,0.00,0.000000,,2013-01-18 11:12:00,
2013-01-18 05:33:00,11.0,9.0,-100.00,ESE,106,2.0,4.0,90,0.00,,,0.00,0.000000,,2013-01-18 11:33:00,
2013-01-18 05:43:00,11.0,9.0,-100.00,ESE,106,2.0,4.0,90,0.00,,,0.00,0.000000,,2013-01-18 11:43:00,
2013-01-18 05:53:00,11.0,9.0,-100.00,ESE,106,2.0,4.0,90,0.00,,,0.00,0.000000,,2013-01-18 11:53:00,
2013-01-18 06:03:00,11.0,9.0,-100.00,ESE,106,2.0,4.0,90,0.00,,,0.00,0.000000,,2013-01-18 12:03:00,
2013-01-18 06:12:00,12.0,10.0,-100.00,ESE,115,3.0,6.0,92,0.00,,,0.00,0.000000,,2013-01-18 12:12:00,
2013-01-18 06:33:00,12.0,10.0,-100.00,ESE,115,3.0,6.0,92,0.00,,,0.00,0.000000,,2013-01-18 12:33:00,
2013-01-18 06:43:00,12.0,10.0,-100.00,ESE,115,3.0,6.0,92,0.00,,,0.00,0.000000,,2013-01-18 12:43:00,
2013-01-18 06:53:00,12.0,10.0,-100.00,ESE,115,3.0,6.0,92,0.00,,,0.00,0.000000,,2013-01-18 12:53:00,
2013-01-18 07:03:00,12.0,10.0,-100.00,ESE,115,3.0,6.0,92,0.00,,,0.00,0.000000,,2013-01-18 13:03:00,
2013-01-18 07:12:00,13.0,11.0,-100.00,SE,133,3.0,6.0,93,0.01,,,0.01,0.000000,,2013-01-18 13:12:00,
2013-01-18 07:33:00,13.0,11.0,-100.00,SE,133,3.0,6.0,93,0.01,,,0.01,0.000000,,2013-01-18 13:33:00,
2013-01-18 07:43:00,13.0,11.0,-100.00,SE,133,3.0,6.0,93,0.01,,,0.01,0.000000,,2013-01-18 13:43:00,
2013-01-18 07:53:00,13.0,11.0,-100.00,SE,133,3.0,6.0,93,0.01,,,0.01,0.000000,,2013-01-18 13:53:00,
2013-01-18 08:03:00,13.0,11.0,-100.00,SE,133,3.0,6.0,93,0.01,,,0.01,0.000000,,2013-01-18 14:03:00,
2013-01-18 08:12:00,15.0,13.0,-100.00,SSE,154,5.0,8.0,93,0.00,,,0.01,2.000000,,2013-01-18 14:12:00,
2013-01-18 08:43:00,15.0,13.0,-100.00,SSE,154,5.0,8.0,93,0.00,,,0.01,2.000000,,2013-01-18 14:43:00,
2013-01-18 08:53:00,15.0,13.0,-100.00,SSE,154,5.0,8.0,93,0.00,,,0.01,2.000000,,2013-01-18 14:53:00,
2013-01-18 09:03:00,15.0,13.0,-100.00,SSE,154,5.0,8.0,93,0.00,,,0.01,2.000000,,2013-01-18 15:03:00,
2013-01-18 09:12:00,18.0,14.0,-100.00,SE,146,6.0,14.0,85,0.00,,,0.01,29.000000,,2013-01-18 15:12:00,
2013-01-18 09:34:00,18.0,14.0,-100.00,SE,146,6.0,14.0,85,0.00,,,0.01,29.000000,,2013-01-18 15:34:00,
2013-01-18 09:43:00,18.0,14.0,-100.00,SE,146,6.0,14.0,85,0.00,,,0.01,29.000000,,2013-01-18 15:43:00,
2013-01-18 09:54:00,18.0,14.0,-100.00,SE,146,6.0,14.0,85,0.00,,,0.01,29.000000,,2013-01-18 15:54:00,
2013-01-18 10:03:00,18.0,14.0,-100.00,SE,146,6.0,14.0,85,0.00,,,0.01,29.000000,,2013-01-18 16:03:00,
2013-01-18 10:12:00,23.0,17.0,-100.00,South,177,6.0,11.0,78,0.00,,,0.01,66.000000,,2013-01-18 16:12:00,
2013-01-18 10:33:00,23.0,17.0,-100.00,South,177,6.0,11.0,78,0.00,,,0.01,66.000000,,2013-01-18 16:33:00,
2013-01-18 10:43:00,23.0,17.0,-100.00,South,177,6.0,11.0,78,0.00,,,0.01,66.000000,,2013-01-18 16:43:00,
2013-01-18 10:53:00,23.0,17.0,-100.00,South,177,6.0,11.0,78,0.00,,,0.01,66.000000,,2013-01-18 16:53:00,
2013-01-18 11:03:00,23.0,17.0,-100.00,South,177,6.0,11.0,78,0.00,,,0.01,66.000000,,2013-01-18 17:03:00,
2013-01-18 11:12:00,31.0,22.0,-100.00,SSW,196,10.0,16.0,69,0.00,,,0.01,161.000000,,2013-01-18 17:12:00,
2013-01-18 11:34:00,31.0,22.0,-100.00,SSW,196,10.0,16.0,69,0.00,,,0.01,161.000000,,2013-01-18 17:34:00,
2013-01-18 11:43:00,31.0,22.0,-100.00,SSW,196,10.0,16.0,69,0.00,,,0.01,161.000000,,2013-01-18 17:43:00,
2013-01-18 11:53:00,31.0,22.0,-100.00,SSW,196,10.0,16.0,69,0.00,,,0.01,161.000000,,2013-01-18 17:53:00,
2013-01-18 12:03:00,31.0,22.0,-100.00,SSW,196,10.0,16.0,69,0.00,,,0.01,161.000000,,2013-01-18 18:03:00,
2013-01-18 12:12:00,37.0,26.0,-100.00,SSW,205,9.0,18.0,63,0.01,,,0.02,360.000000,,2013-01-18 18:12:00,
2013-01-18 12:34:00,37.0,26.0,-100.00,SSW,205,9.0,18.0,63,0.01,,,0.02,360.000000,,2013-01-18 18:34:00,
2013-01-18 12:43:00,37.0,26.0,-100.00,SSW,205,9.0,18.0,63,0.01,,,0.02,360.000000,,2013-01-18 18:43:00,
2013-01-18 12:53:00,37.0,26.0,-100.00,SSW,205,9.0,18.0,63,0.01,,,0.02,360.000000,,2013-01-18 18:53:00,
2013-01-18 13:03:00,37.0,26.0,-100.00,SSW,205,9.0,18.0,63,0.01,,,0.02,360.000000,,2013-01-18 19:03:00,
2013-01-18 13:12:00,39.0,25.0,-100.00,SW,216,11.0,22.0,58,0.02,,,0.04,355.000000,,2013-01-18 19:12:00,
2013-01-18 13:33:00,39.0,25.0,-100.00,SW,216,11.0,22.0,58,0.02,,,0.04,355.000000,,2013-01-18 19:33:00,
2013-01-18 13:43:00,39.0,25.0,-100.00,SW,216,11.0,22.0,58,0.02,,,0.04,355.000000,,2013-01-18 19:43:00,
2013-01-18 13:53:00,39.0,25.0,-100.00,SW,216,11.0,22.0,58,0.02,,,0.04,355.000000,,2013-01-18 19:53:00,
2013-01-18 14:03:00,39.0,25.0,-100.00,SW,216,11.0,22.0,58,0.02,,,0.04,355.000000,,2013-01-18 20:03:00,
2013-01-18 14:12:00,43.0,28.0,-100.00,SSW,207,10.0,22.0,55,0.00,,,0.04,329.000000,,2013-01-18 20:12:00,
2013-01-18 14:33:00,43.0,28.0,-100.00,SSW,207,10.0,22.0,55,0.00,,,0.04,329.000000,,2013-01-18 20:33:00,
2013-01-18 14:43:00,43.0,28.0,-100.00,SSW,207,10.0,22.0,55,0.00,,,0.04,329.000000,,2013-01-18 20:43:00,
2013-01-18 14:53:00,43.0,28.0,-100.00,SSW,207,10.0,22.0,55,0.00,,,0.04,329.000000,,2013-01-18 20:53:00,
2013-01-18 15:03:00,43.0,28.0,-100.00,SSW,207,10.0,22.0,55,0.00,,,0.04,329.000000,,2013-01-18 21:03:00,
2013-01-18 15:12:00,44.0,29.0,-100.00,SSW,208,10.0,17.0,56,0.00,,,0.04,232.000000,,2013-01-18 21:12:00,
2013-01-18 15:43:00,44.0,29.0,-100.00,SSW,208,10.0,17.0,56,0.00,,,0.04,232.000000,,2013-01-18 21:43:00,
2013-01-18 15:53:00,44.0,29.0,-100.00,SSW,208,10.0,17.0,56,0.00,,,0.04,232.000000,,2013-01-18 21:53:00,
2013-01-18 16:03:00,44.0,29.0,-100.00,SSW,208,10.0,17.0,56,0.00,,,0.04,232.000000,,2013-01-18 22:03:00,
2013-01-18 16:12:00,42.0,28.0,-100.00,SSW,207,7.0,24.0,57,0.00,,,0.04,107.000000,,2013-01-18 22:12:00,
2013-01-18 16:43:00,42.0,28.0,-100.00,SSW,207,7.0,24.0,57,0.00,,,0.04,107.000000,,2013-01-18 22:43:00,
2013-01-18 16:53:00,42.0,28.0,-100.00,SSW,207,7.0,24.0,57,0.00,,,0.04,107.000000,,2013-01-18 22:53:00,
2013-01-18 17:03:00,42.0,28.0,-100.00,SSW,207,7.0,24.0,57,0.00,,,0.04,107.000000,,2013-01-18 23:03:00,
2013-01-18 17:12:00,40.0,29.0,-100.00,SSW,198,5.0,10.0,64,0.00,,,0.04,14.000000,,2013-01-18 23:12:00,
2013-01-18 17:33:00,40.0,29.0,-100.00,SSW,198,5.0,10.0,64,0.00,,,0.04,14.000000,,2013-01-18 23:33:00,
2013-01-18 17:43:00,40.0,29.0,-100.00,SSW,198,5.0,10.0,64,0.00,,,0.04,14.000000,,2013-01-18 23:43:00,
2013-01-18 17:53:00,40.0,29.0,-100.00,SSW,198,5.0,10.0,64,0.00,,,0.04,14.000000,,2013-01-18 23:53:00,
2013-01-18 18:02:00,40.0,29.0,-100.00,SSW,198,5.0,10.0,64,0.00,,,0.04,14.000000,,2013-01-19 00:02:00,
2013-01-18 18:12:00,40.0,30.0,-100.00,SSW,204,6.0,9.0,68,0.00,,,0.04,0.000000,,2013-01-19 00:12:00,
2013-01-18 18:33:00,40.0,30.0,-100.00,SSW,204,6.0,9.0,68,0.00,,,0.04,0.000000,,2013-01-19 00:33:00,
2013-01-18 18:43:00,40.0,30.0,-100.00,SSW,204,6.0,9.0,68,0.00,,,0.04,0.000000,,2013-01-19 00:43:00,
2013-01-18 18:53:00,40.0,30.0,-100.00,SSW,204,6.0,9.0,68,0.00,,,0.04,0.000000,,2013-01-19 00:53:00,
2013-01-18 19:02:00,40.0,30.0,-100.00,SSW,204,6.0,9.0,68,0.00,,,0.04,0.000000,,2013-01-19 01:02:00,
2013-01-18 19:12:00,38.0,29.0,-100.00,SSW,198,6.0,13.0,70,0.00,,,0.04,0.000000,,2013-01-19 01:12:00,
2013-01-18 19:43:00,38.0,29.0,-100.00,SSW,198,6.0,13.0,70,0.00,,,0.04,0.000000,,2013-01-19 01:43:00,
2013-01-18 19:53:00,38.0,29.0,-100.00,SSW,198,6.0,13.0,70,0.00,,,0.04,0.000000,,2013-01-19 01:53:00,
2013-01-18 20:02:00,38.0,29.0,-100.00,SSW,198,6.0,13.0,70,0.00,,,0.04,0.000000,,2013-01-19 02:02:00,
2013-01-18 20:12:00,37.0,30.0,-100.00,SSW,193,6.0,9.0,76,0.00,,,0.04,0.000000,,2013-01-19 02:12:00,
2013-01-18 20:33:00,37.0,30.0,-100.00,SSW,193,6.0,9.0,76,0.00,,,0.04,0.000000,,2013-01-19 02:33:00,
2013-01-18 20:43:00,37.0,30.0,-100.00,SSW,193,6.0,9.0,76,0.00,,,0.04,0.000000,,2013-01-19 02:43:00,
2013-01-18 20:53:00,37.0,30.0,-100.00,SSW,193,6.0,9.0,76,0.00,,,0.04,0.000000,,2013-01-19 02:53:00,
2013-01-18 21:03:00,37.0,30.0,-100.00,SSW,193,6.0,9.0,76,0.00,,,0.04,0.000000,,2013-01-19 03:03:00,
2013-01-18 21:12:00,35.0,30.0,-100.00,SW,220,3.0,7.0,83,0.00,,,0.04,0.000000,,2013-01-19 03:12:00,
2013-01-18 21:33:00,35.0,30.0,-100.00,SW,220,3.0,7.0,83,0.00,,,0.04,0.000000,,2013-01-19 03:33:00,
2013-01-18 21:44:00,35.0,30.0,-100.00,SW,220,3.0,7.0,83,0.00,,,0.04,0.000000,,2013-01-19 03:44:00,
2013-01-18 21:53:00,35.0,30.0,-100.00,SW,220,3.0,7.0,83,0.00,,,0.04,0.000000,,2013-01-19 03:53:00,
2013-01-18 22:02:00,35.0,30.0,-100.00,SW,220,3.0,7.0,83,0.00,,,0.04,0.000000,,2013-01-19 04:02:00,
2013-01-18 22:12:00,33.0,30.0,-100.00,WSW,237,2.0,5.0,89,0.00,,,0.04,0.000000,,2013-01-19 04:12:00,
2013-01-18 22:33:00,33.0,30.0,-100.00,WSW,237,2.0,5.0,89,0.00,,,0.04,0.000000,,2013-01-19 04:33:00,
2013-01-18 22:43:00,33.0,30.0,-100.00,WSW,237,2.0,5.0,89,0.00,,,0.04,0.000000,,2013-01-19 04:43:00,
2013-01-18 22:53:00,33.0,30.0,-100.00,WSW,237,2.0,5.0,89,0.00,,,0.04,0.000000,,2013-01-19 04:53:00,
2013-01-18 23:03:00,33.0,30.0,-100.00,WSW,237,2.0,5.0,89,0.00,,,0.04,0.000000,,2013-01-19 05:03:00,
2013-01-18 23:12:00,29.0,29.0,-100.00,SSW,209,2.0,5.0,99,0.00,,,0.04,0.000000,,2013-01-19 05:12:00,
2013-01-18 23:33:00,29.0,29.0,-100.00,SSW,209,2.0,5.0,99,0.00,,,0.04,0.000000,,2013-01-19 05:33:00,
2013-01-18 23:43:00,29.0,29.0,-100.00,SSW,209,2.0,5.0,99,0.00,,,0.04,0.000000,,2013-01-19 05:43:00,
2013-01-18 23:53:00,29.0,29.0,-100.00,SSW,209,2.0,5.0,99,0.00,,,0.04,0.000000,,2013-01-19 05:53:00,